createdAt,value
2019-03-30T00:00:47.695Z,97.80
2019-03-30T00:03:17.045Z,97.90
2019-03-30T00:05:46.675Z,97.90
2019-03-30T00:08:17.635Z,97.70
2019-03-30T00:10:47.200Z,97.70
2019-03-30T00:13:16.566Z,97.90
2019-03-30T00:15:45.792Z,98.00
2019-03-30T00:18:15.041Z,98.20
2019-03-30T00:20:44.280Z,98.30
2019-03-30T00:23:13.523Z,98.70
2019-03-30T00:25:42.772Z,98.80
2019-03-30T00:28:12.011Z,98.90
2019-03-30T00:30:42.566Z,99.10
2019-03-30T00:33:11.855Z,99.20
2019-03-30T00:35:41.159Z,99.20
2019-03-30T00:38:10.393Z,99.10
2019-03-30T00:40:39.617Z,99.10
2019-03-30T00:43:08.851Z,99.20
2019-03-30T00:45:38.086Z,99.10
2019-03-30T00:48:07.317Z,99.40
2019-03-30T00:50:36.617Z,99.60
2019-03-30T00:53:05.845Z,99.80
2019-03-30T00:55:35.092Z,99.80
2019-03-30T00:58:04.323Z,99.90
2019-03-30T01:00:33.631Z,99.90
2019-03-30T01:03:03.865Z,99.90
2019-03-30T01:05:37.744Z,99.90
2019-03-30T01:08:07.164Z,99.90
2019-03-30T01:10:38.445Z,99.90
2019-03-30T01:13:07.761Z,99.90
2019-03-30T01:15:37.027Z,99.90
2019-03-30T01:18:06.255Z,99.90
2019-03-30T01:20:44.464Z,99.90
2019-03-30T01:23:13.816Z,99.90
2019-03-30T01:25:43.065Z,99.90
2019-03-30T01:28:12.468Z,99.90
2019-03-30T01:30:43.324Z,99.90
2019-03-30T01:33:12.588Z,99.90
2019-03-30T01:35:42.253Z,99.90
2019-03-30T01:38:11.474Z,99.90
2019-03-30T01:40:40.760Z,99.90
2019-03-30T01:43:09.992Z,99.90
2019-03-30T01:45:39.454Z,99.90
2019-03-30T01:48:08.696Z,99.90
2019-03-30T01:50:37.924Z,99.90
2019-03-30T01:53:07.134Z,99.90
2019-03-30T01:55:36.392Z,99.90
2019-03-30T01:58:05.640Z,99.90
2019-03-30T02:00:34.893Z,99.90
2019-03-30T02:03:04.124Z,99.90
2019-03-30T02:05:33.384Z,99.90
2019-03-30T02:08:02.623Z,99.90
2019-03-30T02:10:46.072Z,99.90
2019-03-30T02:13:15.379Z,99.90
2019-03-30T02:15:44.615Z,99.90
2019-03-30T02:18:13.978Z,99.90
2019-03-30T02:20:45.224Z,99.90
2019-03-30T02:23:14.837Z,99.90
2019-03-30T02:25:44.243Z,99.90
2019-03-30T02:28:13.555Z,99.90
2019-03-30T02:30:42.791Z,99.90
2019-03-30T02:33:12.038Z,99.90
2019-03-30T02:35:41.272Z,99.90
2019-03-30T02:38:10.510Z,99.90
2019-03-30T02:40:39.729Z,99.90
2019-03-30T02:43:09.068Z,99.90
2019-03-30T02:45:38.365Z,99.90
2019-03-30T02:48:07.576Z,99.90
2019-03-30T02:50:49.249Z,99.90
2019-03-30T02:53:07.741Z,99.90
2019-03-30T02:55:37.043Z,99.90
2019-03-30T02:58:06.322Z,99.90
2019-03-30T03:00:35.872Z,99.90
2019-03-30T03:03:05.166Z,99.90
2019-03-30T03:05:34.412Z,99.90
2019-03-30T03:08:03.711Z,99.90
2019-03-30T03:10:33.015Z,99.90
2019-03-30T03:13:02.252Z,99.90
2019-03-30T03:15:31.539Z,99.90
2019-03-30T03:18:00.793Z,99.90
2019-03-30T03:20:30.091Z,99.90
2019-03-30T03:22:59.331Z,99.90
2019-03-30T03:25:28.750Z,99.90
2019-03-30T03:27:57.968Z,99.90
2019-03-30T03:30:27.280Z,99.90
2019-03-30T03:32:56.511Z,99.90
2019-03-30T03:35:25.810Z,99.90
2019-03-30T03:37:55.108Z,99.90
2019-03-30T03:40:24.483Z,99.90
2019-03-30T03:42:53.766Z,99.90
2019-03-30T03:45:23.027Z,99.90
2019-03-30T03:47:52.262Z,99.90
2019-03-30T03:50:27.688Z,99.90
2019-03-30T03:52:57.001Z,99.90
2019-03-30T03:55:26.802Z,99.90
2019-03-30T03:57:56.264Z,99.90
2019-03-30T04:00:25.622Z,99.90
2019-03-30T04:02:57.933Z,99.90
2019-03-30T04:05:28.314Z,99.90
2019-03-30T04:08:00.950Z,99.90
2019-03-30T04:10:33.377Z,99.90
2019-03-30T04:13:07.188Z,99.90
2019-03-30T04:15:36.775Z,99.90
2019-03-30T04:18:06.094Z,99.90
2019-03-30T04:20:35.378Z,99.90
2019-03-30T04:23:04.692Z,99.90
2019-03-30T04:25:34.209Z,99.90
2019-03-30T04:28:03.458Z,99.90
2019-03-30T04:30:32.678Z,99.90
2019-03-30T04:33:02.004Z,99.90
2019-03-30T04:35:31.372Z,99.90
2019-03-30T04:38:00.605Z,99.90
2019-03-30T04:40:29.840Z,99.90
2019-03-30T04:42:59.049Z,99.90
2019-03-30T04:45:28.349Z,99.90
2019-03-30T04:47:57.665Z,99.90
2019-03-30T04:50:26.886Z,99.90
2019-03-30T04:52:56.115Z,99.90
2019-03-30T04:55:25.341Z,99.90
2019-03-30T04:57:57.898Z,99.90
2019-03-30T05:00:25.509Z,99.90
2019-03-30T05:02:54.809Z,99.90
2019-03-30T05:05:24.023Z,99.90
2019-03-30T05:07:53.273Z,99.90
2019-03-30T05:10:22.549Z,99.90
2019-03-30T05:12:51.776Z,99.90
2019-03-30T05:15:20.996Z,99.90
2019-03-30T05:17:50.230Z,99.90
2019-03-30T05:20:19.476Z,99.90
2019-03-30T05:22:51.179Z,99.90
2019-03-30T05:25:19.640Z,99.90
2019-03-30T05:27:48.850Z,99.90
2019-03-30T05:30:18.423Z,99.90
2019-03-30T05:32:47.655Z,99.90
2019-03-30T05:35:16.912Z,99.90
2019-03-30T05:37:46.188Z,99.90
2019-03-30T05:40:15.529Z,99.90
2019-03-30T05:42:44.768Z,99.90
2019-03-30T05:45:14.243Z,99.90
2019-03-30T05:47:43.488Z,99.90
2019-03-30T05:50:12.749Z,99.90
2019-03-30T05:52:42.038Z,99.90
2019-03-30T05:55:11.738Z,99.90
2019-03-30T05:57:40.956Z,99.90
2019-03-30T06:00:12.722Z,99.90
2019-03-30T06:02:42.012Z,99.90
2019-03-30T06:05:11.332Z,99.90
2019-03-30T06:07:40.572Z,99.90
2019-03-30T06:10:09.940Z,99.90
2019-03-30T06:12:39.234Z,99.90
2019-03-30T06:15:08.812Z,99.90
2019-03-30T06:17:38.064Z,99.90
2019-03-30T06:20:08.434Z,99.90
2019-03-30T06:22:40.395Z,99.90
2019-03-30T06:25:08.898Z,99.90
2019-03-30T06:27:38.156Z,99.90
2019-03-30T06:30:18.788Z,99.90
2019-03-30T06:32:48.041Z,99.90
2019-03-30T06:35:17.343Z,99.90
2019-03-30T06:37:46.798Z,99.90
2019-03-30T06:40:16.256Z,99.90
2019-03-30T06:42:45.656Z,99.90
2019-03-30T06:45:15.014Z,99.90
2019-03-30T06:47:44.368Z,99.90
2019-03-30T06:50:14.047Z,99.90
2019-03-30T06:53:02.624Z,99.90
2019-03-30T06:55:32.130Z,99.90
2019-03-30T06:58:01.349Z,99.90
2019-03-30T07:00:34.879Z,99.90
2019-03-30T07:03:05.347Z,99.90
2019-03-30T07:05:38.861Z,99.90
2019-03-30T07:08:11.180Z,99.90
2019-03-30T07:10:40.853Z,99.90
2019-03-30T07:13:10.171Z,99.90
2019-03-30T07:15:45.246Z,99.90
2019-03-30T07:18:16.036Z,99.90
2019-03-30T07:20:45.266Z,99.90
2019-03-30T07:23:14.495Z,99.90
2019-03-30T07:25:43.824Z,99.90
2019-03-30T07:28:13.039Z,99.90
2019-03-30T07:30:42.278Z,99.90
2019-03-30T07:33:11.524Z,99.90
2019-03-30T07:35:40.771Z,99.90
2019-03-30T07:38:10.071Z,99.90
2019-03-30T07:40:39.393Z,99.90
2019-03-30T07:43:08.631Z,99.90
2019-03-30T07:45:37.853Z,99.90
2019-03-30T07:48:07.181Z,99.90
2019-03-30T07:50:36.415Z,99.90
2019-03-30T07:53:05.666Z,99.90
2019-03-30T07:55:34.908Z,99.90
2019-03-30T07:58:04.214Z,99.90
2019-03-30T08:00:33.465Z,99.80
2019-03-30T08:03:02.722Z,99.10
2019-03-30T08:05:31.985Z,98.50
2019-03-30T08:08:01.219Z,97.80
2019-03-30T08:10:30.439Z,97.20
2019-03-30T08:12:59.675Z,96.70
2019-03-30T08:15:28.946Z,96.30
2019-03-30T08:17:58.173Z,95.90
2019-03-30T08:20:27.422Z,95.60
2019-03-30T08:22:56.656Z,95.10
2019-03-30T08:25:25.869Z,95.00
2019-03-30T08:27:55.103Z,94.80
2019-03-30T08:30:24.387Z,94.50
2019-03-30T08:32:53.671Z,94.30
2019-03-30T08:35:22.875Z,93.90
2019-03-30T08:37:52.091Z,93.60
2019-03-30T08:40:21.481Z,93.20
2019-03-30T08:42:50.732Z,92.90
2019-03-30T08:45:20.057Z,92.80
2019-03-30T08:47:49.297Z,92.50
2019-03-30T08:50:18.632Z,92.00
2019-03-30T08:52:47.931Z,91.80
2019-03-30T08:55:17.181Z,91.50
2019-03-30T08:57:46.431Z,91.40
2019-03-30T09:00:18.801Z,91.00
2019-03-30T09:02:48.038Z,90.20
2019-03-30T09:05:17.277Z,89.70
2019-03-30T09:07:46.523Z,88.80
2019-03-30T09:10:15.834Z,88.60
2019-03-30T09:12:45.085Z,87.70
2019-03-30T09:15:14.469Z,86.30
2019-03-30T09:17:43.730Z,85.60
2019-03-30T09:20:13.197Z,84.60
2019-03-30T09:22:42.444Z,85.10
2019-03-30T09:25:11.759Z,84.30
2019-03-30T09:27:41.068Z,83.50
2019-03-30T09:30:10.760Z,82.90
2019-03-30T09:32:40.083Z,83.00
2019-03-30T09:35:09.880Z,82.30
2019-03-30T09:37:39.161Z,82.20
2019-03-30T09:40:09.154Z,81.60
2019-03-30T09:42:38.484Z,80.90
2019-03-30T09:45:08.357Z,80.80
2019-03-30T09:47:37.600Z,80.80
2019-03-30T09:50:09.544Z,79.90
2019-03-30T09:52:38.794Z,79.30
2019-03-30T09:55:08.795Z,77.90
2019-03-30T09:57:38.020Z,77.60
2019-03-30T10:00:08.086Z,77.00
2019-03-30T10:02:37.327Z,76.00
2019-03-30T10:05:06.704Z,74.50
2019-03-30T10:07:35.941Z,73.40
2019-03-30T10:10:06.923Z,72.20
2019-03-30T10:12:36.140Z,72.30
2019-03-30T10:15:06.840Z,72.60
2019-03-30T10:17:36.147Z,72.40
2019-03-30T10:20:09.008Z,70.20
2019-03-30T10:22:40.595Z,68.20
2019-03-30T10:25:09.512Z,66.10
2019-03-30T10:27:38.737Z,64.70
2019-03-30T10:30:11.483Z,63.70
2019-03-30T10:32:40.709Z,62.90
2019-03-30T10:35:10.184Z,62.20
2019-03-30T10:37:39.412Z,61.10
2019-03-30T10:40:09.892Z,60.40
2019-03-30T10:42:39.127Z,60.20
2019-03-30T10:45:09.206Z,59.30
2019-03-30T10:47:38.444Z,59.10
2019-03-30T10:50:09.144Z,58.80
2019-03-30T10:52:38.410Z,58.20
2019-03-30T10:55:08.091Z,57.90
2019-03-30T10:57:37.403Z,56.80
2019-03-30T11:00:09.160Z,56.10
2019-03-30T11:02:39.421Z,55.60
2019-03-30T11:05:08.979Z,55.30
2019-03-30T11:07:38.232Z,55.50
2019-03-30T11:10:08.608Z,55.20
2019-03-30T11:12:37.856Z,54.90
2019-03-30T11:15:07.277Z,54.80
2019-03-30T11:17:36.495Z,54.00
2019-03-30T11:20:06.071Z,53.60
2019-03-30T11:22:35.311Z,53.10
2019-03-30T11:25:07.937Z,52.80
2019-03-30T11:27:36.238Z,52.30
2019-03-30T11:30:08.404Z,51.90
2019-03-30T11:32:37.943Z,51.70
2019-03-30T11:35:07.475Z,51.70
2019-03-30T11:37:36.820Z,51.90
2019-03-30T11:40:07.709Z,51.00
2019-03-30T11:42:37.022Z,51.20
2019-03-30T11:45:06.811Z,51.40
2019-03-30T11:47:36.081Z,51.50
2019-03-30T11:50:08.272Z,51.40
2019-03-30T11:52:37.595Z,51.00
2019-03-30T11:55:20.657Z,50.10
2019-03-30T11:57:38.418Z,49.90
2019-03-30T12:00:09.020Z,49.70
2019-03-30T12:02:38.336Z,50.30
2019-03-30T12:05:08.227Z,50.40
2019-03-30T12:07:37.473Z,50.60
2019-03-30T12:10:07.012Z,50.70
2019-03-30T12:12:37.456Z,50.20
2019-03-30T12:15:08.086Z,49.90
2019-03-30T12:17:40.708Z,48.60
2019-03-30T12:20:09.385Z,48.20
2019-03-30T12:22:38.617Z,47.90
2019-03-30T12:25:07.939Z,48.00
2019-03-30T12:27:37.193Z,47.80
2019-03-30T12:30:07.793Z,47.50
2019-03-30T12:32:37.035Z,47.30
2019-03-30T12:35:07.558Z,48.00
2019-03-30T12:37:37.133Z,47.50
2019-03-30T12:40:07.333Z,46.80
2019-03-30T12:42:36.645Z,45.70
2019-03-30T12:45:07.339Z,45.90
2019-03-30T12:47:36.644Z,46.10
2019-03-30T12:50:08.094Z,45.30
2019-03-30T12:52:37.325Z,45.40
2019-03-30T12:55:06.729Z,45.90
2019-03-30T12:57:35.993Z,46.00
2019-03-30T13:00:07.531Z,45.80
2019-03-30T13:02:36.760Z,45.90
2019-03-30T13:05:07.604Z,46.00
2019-03-30T13:07:37.014Z,45.60
2019-03-30T13:10:07.440Z,44.20
2019-03-30T13:12:36.694Z,44.30
2019-03-30T13:15:07.458Z,44.30
2019-03-30T13:17:36.695Z,44.40
2019-03-30T13:20:07.476Z,43.10
2019-03-30T13:22:36.701Z,42.20
2019-03-30T13:25:06.373Z,41.50
2019-03-30T13:27:35.625Z,42.10
2019-03-30T13:30:09.138Z,42.30
2019-03-30T13:32:38.360Z,41.40
2019-03-30T13:35:07.781Z,40.40
2019-03-30T13:37:37.002Z,39.10
2019-03-30T13:40:08.065Z,38.40
2019-03-30T13:42:37.310Z,38.00
2019-03-30T13:45:07.193Z,38.20
2019-03-30T13:47:36.445Z,38.40
2019-03-30T13:50:06.422Z,38.80
2019-03-30T13:52:35.684Z,38.40
2019-03-30T13:55:06.150Z,37.40
2019-03-30T13:57:35.398Z,37.20
2019-03-30T14:00:07.135Z,37.80
2019-03-30T14:02:36.394Z,37.30
2019-03-30T14:05:06.493Z,37.30
2019-03-30T14:07:35.800Z,36.30
2019-03-30T14:10:09.209Z,34.80
2019-03-30T14:12:38.448Z,34.20
2019-03-30T14:15:09.513Z,34.00
2019-03-30T14:17:39.120Z,34.10
2019-03-30T14:20:08.697Z,34.90
2019-03-30T14:22:37.935Z,35.60
2019-03-30T14:25:07.827Z,35.10
2019-03-30T14:27:37.051Z,34.20
2019-03-30T14:30:09.633Z,34.10
2019-03-30T14:32:39.012Z,34.90
2019-03-30T14:35:08.533Z,35.20
2019-03-30T14:37:37.852Z,35.90
2019-03-30T14:40:08.255Z,35.80
2019-03-30T14:42:37.620Z,36.20
2019-03-30T14:45:08.125Z,36.60
2019-03-30T14:47:37.381Z,36.70
2019-03-30T14:50:09.435Z,36.70
2019-03-30T14:52:38.911Z,36.90
2019-03-30T14:55:08.985Z,36.90
2019-03-30T14:57:38.377Z,37.00
2019-03-30T15:00:12.494Z,37.30
2019-03-30T15:02:41.895Z,37.40
2019-03-30T15:05:11.979Z,37.90
2019-03-30T15:07:41.222Z,38.30
2019-03-30T15:10:10.825Z,38.00
2019-03-30T15:12:40.530Z,37.90
2019-03-30T15:15:11.022Z,37.40
2019-03-30T15:17:41.166Z,37.20
2019-03-30T15:20:12.339Z,37.10
2019-03-30T15:22:41.558Z,37.30
2019-03-30T15:25:13.533Z,37.50
2019-03-30T15:27:42.762Z,37.00
2019-03-30T15:30:12.170Z,37.30
2019-03-30T15:32:41.402Z,36.90
2019-03-30T15:35:10.948Z,36.90
2019-03-30T15:37:40.196Z,37.00
2019-03-30T15:40:10.664Z,37.20
2019-03-30T15:42:40.708Z,37.10
2019-03-30T15:45:10.958Z,37.10
2019-03-30T15:47:40.197Z,36.80
2019-03-30T15:50:10.219Z,36.20
2019-03-30T15:52:39.504Z,35.80
2019-03-30T15:55:09.146Z,35.40
2019-03-30T15:57:38.384Z,35.70
2019-03-30T16:00:10.491Z,33.90
2019-03-30T16:02:39.809Z,31.30
2019-03-30T16:05:09.490Z,28.00
2019-03-30T16:07:38.965Z,26.60
2019-03-30T16:10:08.827Z,26.00
2019-03-30T16:12:38.058Z,24.60
2019-03-30T16:15:07.616Z,25.00
2019-03-30T16:17:36.870Z,25.00
2019-03-30T16:20:07.799Z,25.60
2019-03-30T16:22:37.057Z,26.40
2019-03-30T16:25:07.800Z,28.00
2019-03-30T16:27:39.198Z,29.30
2019-03-30T16:30:08.694Z,30.60
2019-03-30T16:32:37.944Z,31.70
2019-03-30T16:35:07.630Z,32.50
2019-03-30T16:37:36.893Z,33.20
2019-03-30T16:40:07.127Z,33.90
2019-03-30T16:42:36.451Z,34.50
2019-03-30T16:45:07.547Z,35.10
2019-03-30T16:47:36.876Z,35.50
2019-03-30T16:50:07.962Z,36.20
2019-03-30T16:52:40.717Z,37.00
2019-03-30T16:55:08.435Z,37.70
2019-03-30T16:57:43.762Z,38.30
2019-03-30T17:00:09.527Z,38.80
2019-03-30T17:02:38.793Z,39.20
2019-03-30T17:05:08.449Z,39.50
2019-03-30T17:07:37.719Z,39.90
2019-03-30T17:10:09.211Z,40.30
2019-03-30T17:12:38.565Z,40.60
2019-03-30T17:15:08.052Z,40.90
2019-03-30T17:17:37.301Z,41.20
2019-03-30T17:20:09.578Z,41.70
2019-03-30T17:22:38.889Z,42.20
2019-03-30T17:25:09.170Z,42.80
2019-03-30T17:27:38.478Z,43.40
2019-03-30T17:30:08.834Z,43.70
2019-03-30T17:32:38.096Z,44.00
2019-03-30T17:35:07.613Z,44.60
2019-03-30T17:37:36.864Z,45.20
2019-03-30T17:40:08.951Z,46.10
2019-03-30T17:42:38.837Z,46.50
2019-03-30T17:45:09.769Z,46.80
2019-03-30T17:47:39.038Z,47.60
2019-03-30T17:50:09.197Z,48.40
2019-03-30T17:52:38.457Z,48.80
2019-03-30T17:55:08.364Z,49.20
2019-03-30T17:57:37.619Z,49.80
2019-03-30T18:00:13.535Z,50.40
2019-03-30T18:02:42.779Z,51.00
2019-03-30T18:05:12.191Z,51.20
2019-03-30T18:07:41.430Z,51.80
2019-03-30T18:10:12.387Z,52.20
2019-03-30T18:12:41.681Z,52.40
2019-03-30T18:15:11.984Z,52.80
2019-03-30T18:17:41.240Z,53.10
2019-03-30T18:20:10.910Z,52.90
2019-03-30T18:22:40.158Z,54.20
2019-03-30T18:25:09.641Z,54.80
2019-03-30T18:27:38.889Z,55.50
2019-03-30T18:30:08.969Z,56.30
2019-03-30T18:32:38.298Z,56.80
2019-03-30T18:35:08.067Z,57.00
2019-03-30T18:37:37.549Z,57.20
2019-03-30T18:40:07.835Z,58.20
2019-03-30T18:42:37.376Z,57.80
2019-03-30T18:45:09.350Z,57.80
2019-03-30T18:47:38.681Z,58.10
2019-03-30T18:50:08.417Z,58.40
2019-03-30T18:52:38.115Z,58.40
2019-03-30T18:55:07.872Z,58.90
2019-03-30T18:57:37.141Z,59.10
2019-03-30T19:00:07.942Z,58.90
2019-03-30T19:02:37.197Z,59.60
2019-03-30T19:05:06.594Z,59.90
2019-03-30T19:07:35.952Z,60.70
2019-03-30T19:10:06.602Z,61.00
2019-03-30T19:12:35.860Z,61.30
2019-03-30T19:15:06.695Z,61.40
2019-03-30T19:17:35.956Z,61.30
2019-03-30T19:20:06.986Z,61.70
2019-03-30T19:22:36.236Z,62.70
2019-03-30T19:25:07.895Z,63.30
2019-03-30T19:27:37.217Z,63.10
2019-03-30T19:30:11.157Z,62.80
2019-03-30T19:32:40.506Z,63.40
2019-03-30T19:35:09.980Z,64.20
2019-03-30T19:37:39.223Z,62.80
2019-03-30T19:40:08.466Z,62.80
2019-03-30T19:42:37.720Z,63.80
2019-03-30T19:45:09.366Z,64.20
2019-03-30T19:47:38.647Z,64.90
2019-03-30T19:50:08.385Z,65.40
2019-03-30T19:52:40.226Z,65.80
2019-03-30T19:55:09.018Z,66.50
2019-03-30T19:57:38.261Z,66.60
2019-03-30T20:00:11.193Z,66.40
2019-03-30T20:02:40.976Z,66.40
2019-03-30T20:05:10.411Z,67.00
2019-03-30T20:07:40.148Z,67.60
2019-03-30T20:10:09.732Z,68.30
2019-03-30T20:12:38.953Z,68.70
2019-03-30T20:15:08.533Z,69.20
2019-03-30T20:17:37.776Z,69.30
2019-03-30T20:20:08.632Z,69.50
2019-03-30T20:22:38.065Z,69.80
2019-03-30T20:25:08.261Z,69.90
2019-03-30T20:27:37.514Z,70.10
2019-03-30T20:30:08.889Z,70.80
2019-03-30T20:32:38.290Z,71.70
2019-03-30T20:35:08.667Z,72.40
2019-03-30T20:37:37.927Z,72.80
2019-03-30T20:40:09.236Z,73.10
2019-03-30T20:42:38.541Z,73.20
2019-03-30T20:45:08.526Z,73.10
2019-03-30T20:47:37.803Z,74.30
2019-03-30T20:50:08.466Z,74.00
2019-03-30T20:52:37.766Z,74.30
2019-03-30T20:55:07.403Z,74.60
2019-03-30T20:57:36.644Z,74.70
2019-03-30T21:00:08.739Z,75.20
2019-03-30T21:02:37.994Z,75.70
2019-03-30T21:05:08.567Z,76.20
2019-03-30T21:07:37.874Z,76.40
2019-03-30T21:10:08.542Z,76.40
2019-03-30T21:12:37.777Z,76.80
2019-03-30T21:15:08.558Z,76.40
2019-03-30T21:17:37.847Z,76.30
2019-03-30T21:20:08.226Z,75.20
2019-03-30T21:22:38.213Z,74.30
2019-03-30T21:25:07.626Z,74.00
2019-03-30T21:27:36.846Z,74.30
2019-03-30T21:30:11.133Z,75.00
2019-03-30T21:32:40.435Z,76.10
2019-03-30T21:35:10.039Z,77.00
2019-03-30T21:37:39.339Z,77.20
2019-03-30T21:40:09.721Z,77.60
2019-03-30T21:42:38.950Z,78.50
2019-03-30T21:45:08.711Z,78.90
2019-03-30T21:47:38.018Z,79.10
2019-03-30T21:50:08.107Z,78.20
2019-03-30T21:52:37.425Z,76.70
2019-03-30T21:55:06.778Z,76.20
2019-03-30T21:57:36.174Z,76.90
2019-03-30T22:00:10.220Z,76.50
2019-03-30T22:02:37.993Z,77.30
2019-03-30T22:05:07.676Z,76.90
2019-03-30T22:07:37.486Z,77.10
2019-03-30T22:10:08.867Z,77.20
2019-03-30T22:12:41.537Z,77.50
2019-03-30T22:15:11.053Z,78.20
2019-03-30T22:17:42.989Z,78.90
2019-03-30T22:20:12.333Z,80.20
2019-03-30T22:22:43.586Z,81.30
2019-03-30T22:25:12.802Z,82.60
2019-03-30T22:27:42.021Z,83.10
2019-03-30T22:30:24.026Z,83.30
2019-03-30T22:32:42.565Z,83.90
2019-03-30T22:35:12.158Z,84.70
2019-03-30T22:37:41.460Z,84.70
2019-03-30T22:40:11.073Z,85.10
2019-03-30T22:42:40.412Z,85.00
2019-03-30T22:45:10.157Z,85.40
2019-03-30T22:47:39.413Z,85.90
2019-03-30T22:50:08.960Z,86.50
2019-03-30T22:52:39.217Z,86.20
2019-03-30T22:55:08.789Z,86.20
2019-03-30T22:57:38.060Z,87.30
2019-03-30T23:00:11.126Z,87.30
2019-03-30T23:02:40.460Z,87.50
2019-03-30T23:05:09.824Z,87.70
2019-03-30T23:07:39.060Z,87.70
2019-03-30T23:10:08.746Z,88.00
2019-03-30T23:12:38.032Z,87.80
2019-03-30T23:15:07.595Z,87.90
2019-03-30T23:17:36.841Z,88.40
2019-03-30T23:20:06.602Z,87.90
2019-03-30T23:22:39.174Z,87.80
2019-03-30T23:25:08.576Z,87.90
2019-03-30T23:27:37.821Z,88.30
2019-03-30T23:30:15.388Z,88.60
2019-03-30T23:32:44.770Z,88.70
2019-03-30T23:35:14.090Z,89.10
2019-03-30T23:37:43.330Z,89.90
2019-03-30T23:40:12.629Z,90.00
2019-03-30T23:42:41.862Z,90.20
2019-03-30T23:45:11.087Z,90.40
2019-03-30T23:47:40.336Z,90.50
2019-03-30T23:50:09.740Z,90.70
2019-03-30T23:52:39.060Z,91.00
2019-03-30T23:55:08.365Z,91.00
2019-03-30T23:57:37.972Z,91.10
